Huntsville, Alabama
Current Conditions -  °F | °C
As of 7:53 PM on Sunday 25 Jan 2015 (Local Time) from KHSV Reporting Station
Scattered Clouds Scattered Clouds  
Wind Chill:   Ceiling: Unl
Heat Index:   Visibility: 10mi
Dew Point:   Wind: 14mph
Humidity: 77%   Direction: 290°WNW
Pressure: 29.76"   Gusts: 24mph
Location:  34.73°N, 86.58°W
Report Text: KHSV 260153Z 29012G21KT 10SM SCT015 SCT090 08/04 A2976 RMK AO2 PK WND 27027/0128 SLP080 T00830044
Loading
Personal Weather Stations






























Interactive Weather Map New forecast layout! Learn more

10-Day Weather Forecast

Advertisements
Track Severe Weather on mobile